createdAt,value
2019-03-23T00:01:47.047Z,13.40
2019-03-23T00:04:15.546Z,15.67
2019-03-23T00:06:44.003Z,10.40
2019-03-23T00:09:12.439Z,10.33
2019-03-23T00:11:40.914Z,14.20
2019-03-23T00:14:09.341Z,12.13
2019-03-23T00:16:37.763Z,14.40
2019-03-23T00:19:06.210Z,17.03
2019-03-23T00:21:34.746Z,15.10
2019-03-23T00:24:03.854Z,13.07
2019-03-23T00:26:32.347Z,13.53
2019-03-23T00:29:00.823Z,13.00
2019-03-23T00:31:29.260Z,16.27
2019-03-23T00:33:57.715Z,18.87
2019-03-23T00:36:26.237Z,12.87
2019-03-23T00:38:54.694Z,14.20
2019-03-23T00:41:23.205Z,14.60
2019-03-23T00:43:51.674Z,20.67
2019-03-23T00:46:20.092Z,22.70
2019-03-23T00:48:48.555Z,28.80
2019-03-23T00:51:16.978Z,30.20
2019-03-23T00:53:45.727Z,26.20
2019-03-23T00:56:16.482Z,24.83
2019-03-23T00:58:44.361Z,32.07
2019-03-23T01:01:13.032Z,32.13
2019-03-23T01:03:41.503Z,35.97
2019-03-23T01:06:09.931Z,40.33
2019-03-23T01:08:38.473Z,39.40
2019-03-23T01:11:06.920Z,40.40
2019-03-23T01:13:35.371Z,39.37
2019-03-23T01:16:03.914Z,42.90
2019-03-23T01:18:32.416Z,45.37
2019-03-23T01:21:00.915Z,40.10
2019-03-23T01:23:29.392Z,43.63
2019-03-23T01:25:57.879Z,46.90
2019-03-23T01:28:26.373Z,45.37
2019-03-23T01:30:54.896Z,48.50
2019-03-23T01:33:23.348Z,45.87
2019-03-23T01:35:52.143Z,49.33
2019-03-23T01:38:20.640Z,50.27
2019-03-23T01:40:49.090Z,54.30
2019-03-23T01:43:17.529Z,48.23
2019-03-23T01:45:45.998Z,52.80
2019-03-23T01:48:14.420Z,50.57
2019-03-23T01:50:42.877Z,47.57
2019-03-23T01:53:11.309Z,50.10
2019-03-23T01:55:39.767Z,52.87
2019-03-23T01:58:08.226Z,51.00
2019-03-23T02:00:36.735Z,51.73
2019-03-23T02:03:05.431Z,49.90
2019-03-23T02:05:33.951Z,54.70
2019-03-23T02:08:02.390Z,57.23
2019-03-23T02:10:30.916Z,54.80
2019-03-23T02:12:59.349Z,60.47
2019-03-23T02:15:27.790Z,65.10
2019-03-23T02:17:56.479Z,59.50
2019-03-23T02:20:24.922Z,63.77
2019-03-23T02:22:53.378Z,65.30
2019-03-23T02:25:21.829Z,63.93
2019-03-23T02:27:50.317Z,69.33
2019-03-23T02:30:18.735Z,70.43
2019-03-23T02:32:47.182Z,70.93
2019-03-23T02:35:15.624Z,73.23
2019-03-23T02:37:44.133Z,72.90
2019-03-23T02:40:12.647Z,69.47
2019-03-23T02:42:41.172Z,78.53
2019-03-23T02:45:11.490Z,75.07
2019-03-23T02:47:40.217Z,77.33
2019-03-23T02:50:10.047Z,75.77
2019-03-23T02:52:38.711Z,85.93
2019-03-23T02:55:09.286Z,79.73
2019-03-23T02:57:37.947Z,84.33
2019-03-23T03:00:09.502Z,83.10
2019-03-23T03:02:38.092Z,94.30
2019-03-23T03:05:08.329Z,97.03
2019-03-23T03:07:42.286Z,87.23
2019-03-23T03:10:09.196Z,91.43
2019-03-23T03:12:37.646Z,93.30
2019-03-23T03:15:08.522Z,94.60
2019-03-23T03:17:36.963Z,98.70
2019-03-23T03:20:07.952Z,102.23
2019-03-23T03:22:36.380Z,98.80
2019-03-23T03:25:06.595Z,102.57
2019-03-23T03:27:35.183Z,123.43
2019-03-23T03:30:05.385Z,119.10
2019-03-23T03:32:33.893Z,168.63
2019-03-23T03:35:02.374Z,157.60
2019-03-23T03:37:30.984Z,186.50
2019-03-23T03:39:59.444Z,183.27
2019-03-23T03:42:28.248Z,189.33
2019-03-23T03:44:56.704Z,206.90
2019-03-23T03:47:25.147Z,189.23
2019-03-23T03:49:53.619Z,218.77
2019-03-23T03:52:22.060Z,200.70
2019-03-23T03:54:50.585Z,204.30
2019-03-23T03:57:19.109Z,212.03
2019-03-23T03:59:47.639Z,192.93
2019-03-23T04:02:16.176Z,182.27
2019-03-23T04:04:44.628Z,210.43
2019-03-23T04:07:13.133Z,198.00
2019-03-23T04:09:41.586Z,184.83
2019-03-23T04:12:10.023Z,211.57
2019-03-23T04:14:38.473Z,226.17
2019-03-23T04:17:06.929Z,199.97
2019-03-23T04:19:35.355Z,235.40
2019-03-23T04:22:03.991Z,207.83
2019-03-23T04:24:32.503Z,216.10
2019-03-23T04:27:02.690Z,223.63
2019-03-23T04:29:31.122Z,233.50
2019-03-23T04:31:59.574Z,218.17
2019-03-23T04:34:28.032Z,246.53
2019-03-23T04:36:56.482Z,247.40
2019-03-23T04:39:24.987Z,247.20
2019-03-23T04:41:53.455Z,254.47
2019-03-23T04:44:21.887Z,213.23
2019-03-23T04:46:50.351Z,257.50
2019-03-23T04:49:18.770Z,258.87
2019-03-23T04:51:47.299Z,234.67
2019-03-23T04:54:15.754Z,288.57
2019-03-23T04:56:44.211Z,249.17
2019-03-23T04:59:12.654Z,231.63
2019-03-23T05:01:41.107Z,244.67
2019-03-23T05:04:09.522Z,210.07
2019-03-23T05:06:37.975Z,230.63
2019-03-23T05:09:08.453Z,252.50
2019-03-23T05:11:36.976Z,222.17
2019-03-23T05:14:05.479Z,220.13
2019-03-23T05:16:33.929Z,203.53
2019-03-23T05:19:02.365Z,213.40
2019-03-23T05:21:30.967Z,217.40
2019-03-23T05:23:59.526Z,225.30
2019-03-23T05:26:28.048Z,219.60
2019-03-23T05:28:56.484Z,220.53
2019-03-23T05:31:24.931Z,203.57
2019-03-23T05:33:53.380Z,242.20
2019-03-23T05:36:21.829Z,220.30
2019-03-23T05:38:50.286Z,193.80
2019-03-23T05:41:18.730Z,245.90
2019-03-23T05:43:47.186Z,211.83
2019-03-23T05:46:15.621Z,209.10
2019-03-23T05:48:44.130Z,200.53
2019-03-23T05:51:12.576Z,228.57
2019-03-23T05:53:41.117Z,206.10
2019-03-23T05:56:09.557Z,218.47
2019-03-23T05:58:38.017Z,214.90
2019-03-23T06:01:06.454Z,221.53
2019-03-23T06:03:34.909Z,205.90
2019-03-23T06:06:03.339Z,200.30
2019-03-23T06:08:31.797Z,195.03
2019-03-23T06:11:00.232Z,218.77
2019-03-23T06:13:28.698Z,225.73
2019-03-23T06:15:57.230Z,223.97
2019-03-23T06:18:25.655Z,204.07
2019-03-23T06:20:54.117Z,223.87
2019-03-23T06:23:22.550Z,216.10
2019-03-23T06:25:51.008Z,208.97
2019-03-23T06:28:19.452Z,220.27
2019-03-23T06:30:47.891Z,214.20
2019-03-23T06:33:16.336Z,205.67
2019-03-23T06:35:44.781Z,183.67
2019-03-23T06:38:13.207Z,208.73
2019-03-23T06:40:41.671Z,180.30
2019-03-23T06:43:10.103Z,201.33
2019-03-23T06:45:38.555Z,193.17
2019-03-23T06:48:06.995Z,189.03
2019-03-23T06:50:35.439Z,181.30
2019-03-23T06:53:03.879Z,187.20
2019-03-23T06:55:32.331Z,181.53
2019-03-23T06:58:00.766Z,178.73
2019-03-23T07:00:29.227Z,194.77
2019-03-23T07:02:57.662Z,181.00
2019-03-23T07:05:26.206Z,199.17
2019-03-23T07:07:54.663Z,188.33
2019-03-23T07:10:23.098Z,187.50
2019-03-23T07:12:51.554Z,185.73
2019-03-23T07:15:20.663Z,191.33
2019-03-23T07:17:49.239Z,183.60
2019-03-23T07:20:17.731Z,193.73
2019-03-23T07:22:46.197Z,201.20
2019-03-23T07:25:14.833Z,204.90
2019-03-23T07:27:43.285Z,194.37
2019-03-23T07:30:16.410Z,194.67
2019-03-23T07:32:46.220Z,212.30
2019-03-23T07:35:15.097Z,208.93
2019-03-23T07:37:43.549Z,197.73
2019-03-23T07:40:12.835Z,195.97
2019-03-23T07:42:41.503Z,175.57
2019-03-23T07:45:11.795Z,181.03
2019-03-23T07:47:40.267Z,199.70
2019-03-23T07:50:11.245Z,200.07
2019-03-23T07:52:39.708Z,177.73
2019-03-23T07:55:10.560Z,198.20
2019-03-23T07:57:39.115Z,191.33
2019-03-23T08:00:10.258Z,202.07
2019-03-23T08:02:39.055Z,182.37
2019-03-23T08:05:08.238Z,186.63
2019-03-23T08:07:36.684Z,192.97
2019-03-23T08:10:05.679Z,163.73
2019-03-23T08:12:34.222Z,188.73
2019-03-23T08:15:02.746Z,205.43
2019-03-23T08:17:31.171Z,200.37
2019-03-23T08:19:59.640Z,202.87
2019-03-23T08:22:28.068Z,202.67
2019-03-23T08:24:56.534Z,204.23
2019-03-23T08:27:24.984Z,172.27
2019-03-23T08:29:54.748Z,175.57
2019-03-23T08:32:23.192Z,186.80
2019-03-23T08:34:51.649Z,165.37
2019-03-23T08:37:20.087Z,161.50
2019-03-23T08:39:48.908Z,158.73
2019-03-23T08:42:17.458Z,166.80
2019-03-23T08:44:45.928Z,166.63
2019-03-23T08:47:14.430Z,150.63
2019-03-23T08:49:42.915Z,145.27
2019-03-23T08:52:11.367Z,147.87
2019-03-23T08:54:39.810Z,143.40
2019-03-23T08:57:08.257Z,139.70
2019-03-23T08:59:36.783Z,111.70
2019-03-23T09:02:05.294Z,117.40
2019-03-23T09:04:33.752Z,118.67
2019-03-23T09:07:02.229Z,122.90
2019-03-23T09:09:30.677Z,118.07
2019-03-23T09:11:59.136Z,109.17
2019-03-23T09:14:27.587Z,109.40
2019-03-23T09:16:56.138Z,108.13
2019-03-23T09:19:24.583Z,108.77
2019-03-23T09:21:53.062Z,99.63
2019-03-23T09:24:21.605Z,101.50
2019-03-23T09:26:50.091Z,108.20
2019-03-23T09:29:18.511Z,103.63
2019-03-23T09:31:46.984Z,101.17
2019-03-23T09:34:15.420Z,96.47
2019-03-23T09:36:43.901Z,96.77
2019-03-23T09:39:12.490Z,96.50
2019-03-23T09:41:40.974Z,94.20
2019-03-23T09:44:09.642Z,94.83
2019-03-23T09:46:38.130Z,89.00
2019-03-23T09:49:06.573Z,88.50
2019-03-23T09:51:35.033Z,91.47
2019-03-23T09:54:03.474Z,88.20
2019-03-23T09:56:31.915Z,84.73
2019-03-23T09:59:00.368Z,86.63
2019-03-23T10:01:28.889Z,75.67
2019-03-23T10:03:57.381Z,76.07
2019-03-23T10:06:25.908Z,81.67
2019-03-23T10:08:54.363Z,74.80
2019-03-23T10:11:22.806Z,83.60
2019-03-23T10:13:51.276Z,79.13
2019-03-23T10:16:19.727Z,78.63
2019-03-23T10:18:48.199Z,68.23
2019-03-23T10:21:16.634Z,79.60
2019-03-23T10:23:45.106Z,77.97
2019-03-23T10:26:13.647Z,75.40
2019-03-23T10:28:42.238Z,80.30
2019-03-23T10:31:10.686Z,79.53
2019-03-23T10:33:39.151Z,80.43
2019-03-23T10:36:07.583Z,85.33
2019-03-23T10:38:36.057Z,80.23
2019-03-23T10:41:06.360Z,88.20
2019-03-23T10:43:34.816Z,78.07
2019-03-23T10:46:03.255Z,78.87
2019-03-23T10:48:31.715Z,82.63
2019-03-23T10:51:00.262Z,78.43
2019-03-23T10:53:28.709Z,83.33
2019-03-23T10:55:57.198Z,79.50
2019-03-23T10:58:25.645Z,82.90
2019-03-23T11:00:54.092Z,84.00
2019-03-23T11:03:22.534Z,81.40
2019-03-23T11:05:51.023Z,83.07
2019-03-23T11:08:19.471Z,84.20
2019-03-23T11:10:47.963Z,84.40
2019-03-23T11:13:16.411Z,85.43
2019-03-23T11:15:44.948Z,91.70
2019-03-23T11:18:13.388Z,88.37
2019-03-23T11:20:41.937Z,86.57
2019-03-23T11:23:10.450Z,82.07
2019-03-23T11:25:38.917Z,84.53
2019-03-23T11:28:07.380Z,82.57
2019-03-23T11:30:35.847Z,91.03
2019-03-23T11:33:04.285Z,86.07
2019-03-23T11:35:32.760Z,81.50
2019-03-23T11:38:02.471Z,81.00
2019-03-23T11:40:31.248Z,94.73
2019-03-23T11:42:59.686Z,96.07
2019-03-23T11:45:28.211Z,92.80
2019-03-23T11:47:56.690Z,94.23
2019-03-23T11:50:25.154Z,88.97
2019-03-23T11:52:53.674Z,91.83
2019-03-23T11:55:22.212Z,96.57
2019-03-23T11:57:50.850Z,90.20
2019-03-23T12:00:19.529Z,85.40
2019-03-23T12:02:48.071Z,83.60
2019-03-23T12:05:16.523Z,87.00
2019-03-23T12:07:45.002Z,86.03
2019-03-23T12:10:14.360Z,89.33
2019-03-23T12:12:43.067Z,86.73
2019-03-23T12:15:12.869Z,80.07
2019-03-23T12:17:41.475Z,89.50
2019-03-23T12:20:10.447Z,86.13
2019-03-23T12:22:38.968Z,80.27
2019-03-23T12:25:07.967Z,91.23
2019-03-23T12:27:36.434Z,85.40
2019-03-23T12:30:10.609Z,77.23
2019-03-23T12:32:39.128Z,71.13
2019-03-23T12:35:08.404Z,78.63
2019-03-23T12:37:36.963Z,79.87
2019-03-23T12:40:06.875Z,74.97
2019-03-23T12:42:35.515Z,74.73
2019-03-23T12:45:05.348Z,68.43
2019-03-23T12:47:33.825Z,79.87
2019-03-23T12:50:02.330Z,76.77
2019-03-23T12:52:30.797Z,67.30
2019-03-23T12:54:59.366Z,71.60
2019-03-23T12:57:27.865Z,72.90
2019-03-23T12:59:56.345Z,72.53
2019-03-23T13:02:24.985Z,66.77
2019-03-23T13:04:53.491Z,70.23
2019-03-23T13:07:21.955Z,70.33
2019-03-23T13:09:50.428Z,68.77
2019-03-23T13:12:18.978Z,74.87
2019-03-23T13:14:47.488Z,70.20
2019-03-23T13:17:15.962Z,73.43
2019-03-23T13:19:44.484Z,65.30
2019-03-23T13:22:12.922Z,63.67
2019-03-23T13:24:41.373Z,60.90
2019-03-23T13:27:09.818Z,62.93
2019-03-23T13:29:38.280Z,62.53
2019-03-23T13:32:06.761Z,63.40
2019-03-23T13:34:35.203Z,69.87
2019-03-23T13:37:03.667Z,65.63
2019-03-23T13:39:32.103Z,62.00
2019-03-23T13:42:00.653Z,59.60
2019-03-23T13:44:29.091Z,61.73
2019-03-23T13:46:57.557Z,63.57
2019-03-23T13:49:25.993Z,57.63
2019-03-23T13:51:54.450Z,59.90
2019-03-23T13:54:22.886Z,61.10
2019-03-23T13:56:51.347Z,57.73
2019-03-23T13:59:19.819Z,53.60
2019-03-23T14:01:48.315Z,56.57
2019-03-23T14:04:16.756Z,56.00
2019-03-23T14:06:45.290Z,59.07
2019-03-23T14:09:14.132Z,55.83
2019-03-23T14:11:42.614Z,59.73
2019-03-23T14:14:11.107Z,56.70
2019-03-23T14:16:39.569Z,55.90
2019-03-23T14:19:08.008Z,55.00
2019-03-23T14:21:36.487Z,58.10
2019-03-23T14:24:04.998Z,57.63
2019-03-23T14:26:33.591Z,61.40
2019-03-23T14:29:02.061Z,54.03
2019-03-23T14:31:30.509Z,53.13
2019-03-23T14:33:58.967Z,57.63
2019-03-23T14:36:27.458Z,54.93
2019-03-23T14:38:55.990Z,50.73
2019-03-23T14:41:24.438Z,57.47
2019-03-23T14:43:52.903Z,55.00
2019-03-23T14:46:21.363Z,55.50
2019-03-23T14:48:49.896Z,57.77
2019-03-23T14:51:18.348Z,54.97
2019-03-23T14:53:46.791Z,57.67
2019-03-23T14:56:15.230Z,58.97
2019-03-23T14:58:43.768Z,55.40
2019-03-23T15:01:12.208Z,53.87
2019-03-23T15:03:40.702Z,54.90
2019-03-23T15:06:09.149Z,57.10
2019-03-23T15:08:37.621Z,53.70
2019-03-23T15:11:06.134Z,51.57
2019-03-23T15:13:34.708Z,52.30
2019-03-23T15:16:03.212Z,58.97
2019-03-23T15:18:31.669Z,52.77
2019-03-23T15:21:00.132Z,61.17
2019-03-23T15:23:28.555Z,57.07
2019-03-23T15:25:57.012Z,58.17
2019-03-23T15:28:25.543Z,55.37
2019-03-23T15:30:54.209Z,53.10
2019-03-23T15:33:22.710Z,55.33
2019-03-23T15:35:51.561Z,57.03
2019-03-23T15:38:20.044Z,54.23
2019-03-23T15:40:48.529Z,56.83
2019-03-23T15:43:17.117Z,55.60
2019-03-23T15:45:45.592Z,61.60
2019-03-23T15:48:14.040Z,60.37
2019-03-23T15:50:42.507Z,57.87
2019-03-23T15:53:11.003Z,63.17
2019-03-23T15:55:39.470Z,64.40
2019-03-23T15:58:07.914Z,64.63
2019-03-23T16:00:36.439Z,62.37
2019-03-23T16:03:04.999Z,63.67
2019-03-23T16:05:33.458Z,57.87
2019-03-23T16:08:01.899Z,64.20
2019-03-23T16:10:30.371Z,59.23
2019-03-23T16:12:58.815Z,63.33
2019-03-23T16:15:27.252Z,56.47
2019-03-23T16:17:55.695Z,62.47
2019-03-23T16:20:24.214Z,62.83
2019-03-23T16:22:52.672Z,60.93
2019-03-23T16:25:21.184Z,57.90
2019-03-23T16:27:49.650Z,62.23
2019-03-23T16:30:21.215Z,59.73
2019-03-23T16:32:49.707Z,56.27
2019-03-23T16:35:18.191Z,64.43
2019-03-23T16:37:46.653Z,62.10
2019-03-23T16:40:15.097Z,64.83
2019-03-23T16:42:45.543Z,56.90
2019-03-23T16:45:14.010Z,59.10
2019-03-23T16:47:42.598Z,63.00
2019-03-23T16:50:11.712Z,58.67
2019-03-23T16:52:40.185Z,76.17
2019-03-23T16:55:10.069Z,73.83
2019-03-23T16:57:38.527Z,61.70
2019-03-23T17:00:09.405Z,64.90
2019-03-23T17:02:38.013Z,63.20
2019-03-23T17:05:06.898Z,65.43
2019-03-23T17:07:35.446Z,60.80
2019-03-23T17:10:05.023Z,64.77
2019-03-23T17:12:33.473Z,64.37
2019-03-23T17:15:01.950Z,69.00
2019-03-23T17:17:30.622Z,69.00
2019-03-23T17:19:59.175Z,63.73
2019-03-23T17:22:27.608Z,65.17
2019-03-23T17:24:56.075Z,65.60
2019-03-23T17:27:24.566Z,67.17
2019-03-23T17:29:53.020Z,74.20
2019-03-23T17:32:21.470Z,68.23
2019-03-23T17:34:49.966Z,67.23
2019-03-23T17:37:18.435Z,72.53
2019-03-23T17:39:46.893Z,69.40
2019-03-23T17:42:15.336Z,70.57
2019-03-23T17:44:46.078Z,69.93
2019-03-23T17:47:14.123Z,70.70
2019-03-23T17:49:42.610Z,65.10
2019-03-23T17:52:11.176Z,74.20
2019-03-23T17:54:39.623Z,79.30
2019-03-23T17:57:08.054Z,73.63
2019-03-23T17:59:36.517Z,75.03
2019-03-23T18:02:05.263Z,67.53
2019-03-23T18:04:33.734Z,75.03
2019-03-23T18:07:02.163Z,77.63
2019-03-23T18:09:30.596Z,72.67
2019-03-23T18:11:59.193Z,71.80
2019-03-23T18:14:27.747Z,76.10
2019-03-23T18:16:56.227Z,79.20
2019-03-23T18:19:24.882Z,68.67
2019-03-23T18:21:53.395Z,82.13
2019-03-23T18:24:21.839Z,75.87
2019-03-23T18:26:50.331Z,72.33
2019-03-23T18:29:18.767Z,70.27
2019-03-23T18:31:47.244Z,74.07
2019-03-23T18:34:15.739Z,74.80
2019-03-23T18:36:44.667Z,68.77
2019-03-23T18:39:13.092Z,70.83
2019-03-23T18:41:41.666Z,73.40
2019-03-23T18:44:16.176Z,75.87
2019-03-23T18:46:40.654Z,70.67
2019-03-23T18:49:09.213Z,66.90
2019-03-23T18:51:37.747Z,74.63
2019-03-23T18:54:06.273Z,72.27
2019-03-23T18:56:34.750Z,71.07
2019-03-23T18:59:03.271Z,70.00
2019-03-23T19:01:31.759Z,71.00
2019-03-23T19:04:00.192Z,76.73
2019-03-23T19:06:28.662Z,75.20
2019-03-23T19:08:57.209Z,73.73
2019-03-23T19:11:25.768Z,76.97
2019-03-23T19:13:54.258Z,69.30
2019-03-23T19:16:22.755Z,76.00
2019-03-23T19:18:51.330Z,71.90
2019-03-23T19:21:19.773Z,70.80
2019-03-23T19:23:48.327Z,80.57
2019-03-23T19:26:16.838Z,75.10
2019-03-23T19:28:45.331Z,79.83
2019-03-23T19:31:13.779Z,79.67
2019-03-23T19:33:42.249Z,76.03
2019-03-23T19:36:10.747Z,86.83
2019-03-23T19:38:39.220Z,93.33
2019-03-23T19:41:07.725Z,107.40
2019-03-23T19:43:36.266Z,107.57
2019-03-23T19:46:04.784Z,102.23
2019-03-23T19:48:33.341Z,84.67
2019-03-23T19:51:03.699Z,85.37
2019-03-23T19:53:32.138Z,94.37
2019-03-23T19:56:00.580Z,90.83
2019-03-23T19:58:29.059Z,98.53
2019-03-23T20:00:57.580Z,91.63
2019-03-23T20:03:26.066Z,103.47
2019-03-23T20:05:54.498Z,102.03
2019-03-23T20:08:25.458Z,118.23
2019-03-23T20:10:53.151Z,97.53
2019-03-23T20:13:21.632Z,96.87
2019-03-23T20:15:50.129Z,108.03
2019-03-23T20:18:18.702Z,99.33
2019-03-23T20:20:47.173Z,96.13
2019-03-23T20:23:15.608Z,94.30
2019-03-23T20:25:44.136Z,91.00
2019-03-23T20:28:12.616Z,90.90
2019-03-23T20:30:41.130Z,92.93
2019-03-23T20:33:19.039Z,96.57
2019-03-23T20:35:39.850Z,90.97
2019-03-23T20:38:08.332Z,85.70
2019-03-23T20:40:36.840Z,86.90
2019-03-23T20:43:05.283Z,86.90
2019-03-23T20:45:33.815Z,85.27
2019-03-23T20:48:02.819Z,80.20
2019-03-23T20:50:31.419Z,84.83
2019-03-23T20:53:00.103Z,84.53
2019-03-23T20:55:30.225Z,80.00
2019-03-23T20:57:58.798Z,79.83
2019-03-23T21:00:27.314Z,79.90
2019-03-23T21:02:55.796Z,79.50
2019-03-23T21:05:33.083Z,83.20
2019-03-23T21:07:54.515Z,87.93
2019-03-23T21:10:22.963Z,83.13
2019-03-23T21:12:51.432Z,80.53
2019-03-23T21:15:19.863Z,77.70
2019-03-23T21:17:51.449Z,75.20
2019-03-23T21:20:18.652Z,80.97
2019-03-23T21:22:47.108Z,84.17
2019-03-23T21:25:15.816Z,90.37
2019-03-23T21:27:44.365Z,85.67
2019-03-23T21:30:15.454Z,90.07
2019-03-23T21:32:44.064Z,88.00
2019-03-23T21:35:15.586Z,89.70
2019-03-23T21:37:43.424Z,83.73
2019-03-23T21:40:12.316Z,85.57
2019-03-23T21:42:41.047Z,87.67
2019-03-23T21:45:09.907Z,85.80
2019-03-23T21:47:38.378Z,81.77
2019-03-23T21:50:08.313Z,80.03
2019-03-23T21:52:36.843Z,80.33
2019-03-23T21:55:06.335Z,79.97
2019-03-23T21:57:35.167Z,86.63
2019-03-23T22:00:04.481Z,84.67
2019-03-23T22:02:33.011Z,80.23
2019-03-23T22:05:01.591Z,85.93
2019-03-23T22:07:30.027Z,91.00
2019-03-23T22:09:58.487Z,77.50
2019-03-23T22:12:26.978Z,75.80
2019-03-23T22:14:55.561Z,81.40
2019-03-23T22:17:24.042Z,85.53
2019-03-23T22:19:52.528Z,86.73
2019-03-23T22:22:20.995Z,87.90
2019-03-23T22:24:49.531Z,83.23
2019-03-23T22:27:19.191Z,83.70
2019-03-23T22:29:48.004Z,88.43
2019-03-23T22:32:16.589Z,90.40
2019-03-23T22:34:45.037Z,84.80
2019-03-23T22:37:13.496Z,91.00
2019-03-23T22:39:42.111Z,81.87
2019-03-23T22:42:10.553Z,81.57
2019-03-23T22:44:39.052Z,84.00
2019-03-23T22:47:07.471Z,81.53
2019-03-23T22:49:35.932Z,80.63
2019-03-23T22:52:04.571Z,87.27
2019-03-23T22:54:33.101Z,94.57
2019-03-23T22:57:01.559Z,86.53
2019-03-23T22:59:30.065Z,88.37
2019-03-23T23:01:58.788Z,81.57
2019-03-23T23:04:27.279Z,84.23
2019-03-23T23:06:55.715Z,87.30
2019-03-23T23:09:24.170Z,84.23
2019-03-23T23:11:52.661Z,87.50
2019-03-23T23:14:21.096Z,84.93
2019-03-23T23:16:49.564Z,83.87
2019-03-23T23:19:18.064Z,92.23
2019-03-23T23:21:46.539Z,84.50
2019-03-23T23:24:14.980Z,89.57
2019-03-23T23:26:43.425Z,83.97
2019-03-23T23:29:11.871Z,76.80
2019-03-23T23:31:40.369Z,78.90
2019-03-23T23:34:08.871Z,81.80
2019-03-23T23:36:37.431Z,76.27
2019-03-23T23:39:07.078Z,77.33
2019-03-23T23:41:35.659Z,74.33
2019-03-23T23:44:04.690Z,78.07
2019-03-23T23:46:34.088Z,93.67
2019-03-23T23:49:02.514Z,96.70
2019-03-23T23:51:30.966Z,80.67
2019-03-23T23:53:59.393Z,80.47
2019-03-23T23:56:27.828Z,76.23
2019-03-23T23:58:56.296Z,74.77
